Time;durP1;ratioP1;P1;durP2;ratioP2;P2;SDS_P1;SDS_P2;PMS_P1;PMS_P2;Temp;Humidity;BMP_temperature;BMP_pressure;BME280_temperature;BME280_humidity;BME280_pressure;Samples;Min_cycle;Max_cycle;Signal;HPM_P1;HPM_P2
2022/06/14 00:00:53;;;;;;;11.68;2.70;;;;;;;;;;4937490;29;20151;-75
2022/06/14 00:02:24;;;;;;;10.70;2.83;;;;;;;;;;4939214;29;20075;-75
2022/06/14 00:04:51;;;;;;;10.45;2.50;;;;;;;;;;4941734;29;20150;-75
2022/06/14 00:07:18;;;;;;;17.88;2.90;;;;;;;;;;4937166;29;20125;-75
2022/06/14 00:09:45;;;;;;;13.73;2.92;;;;;;;;;;4943100;29;20067;-75
2022/06/14 00:12:13;;;;;;;18.85;3.22;;;;;;;;;;4944389;29;20139;-76
2022/06/14 00:14:40;;;;;;;12.57;5.30;;;;;;;;;;4919808;29;20114;-76
2022/06/14 00:17:08;;;;;;;14.30;2.97;;;;;;;;;;4941853;29;20138;-76
2022/06/14 00:19:35;;;;;;;6.72;2.63;;;;;;;;;;4944944;29;20118;-75
2022/06/14 00:22:03;;;;;;;20.58;3.50;;;;;;;;;;4922538;29;20055;-75
2022/06/14 00:24:31;;;;;;;16.63;3.63;;;;;;;;;;4938686;29;20548;-75
2022/06/14 00:26:59;;;;;;;9.77;2.72;;;;;;;;;;4934873;29;20149;-75
2022/06/14 00:29:28;;;;;;;15.75;3.22;;;;;;;;;;4938569;29;20055;-75
2022/06/14 00:31:55;;;;;;;10.75;2.97;;;;;;;;;;4939741;29;20043;-75
2022/06/14 00:34:23;;;;;;;22.08;3.38;;;;;;;;;;4940368;29;20191;-75
2022/06/14 00:36:51;;;;;;;25.40;3.53;;;;;;;;;;4939580;29;20151;-75
2022/06/14 00:39:19;;;;;;;7.40;2.65;;;;;;;;;;4939583;29;20058;-75
2022/06/14 00:41:48;;;;;;;15.65;3.38;;;;;;;;;;4938872;28;20151;-75
2022/06/14 00:44:20;;;;;;;16.48;3.00;;;;;;;;;;4925141;29;20051;-75
2022/06/14 00:47:06;;;;;;;9.30;2.78;;;;;;;;;;4940263;29;20142;-76
2022/06/14 00:49:46;;;;;;;9.00;2.70;;;;;;;;;;4923990;29;20643;-76
2022/06/14 00:52:32;;;;;;;10.90;2.95;;;;;;;;;;4944282;29;20067;-76
2022/06/14 00:55:02;;;;;;;23.17;4.15;;;;;;;;;;4943839;29;20577;-76
2022/06/14 00:57:33;;;;;;;14.63;3.10;;;;;;;;;;4943789;29;20079;-76
2022/06/14 01:00:00;;;;;;;16.20;3.20;;;;;;;;;;4943789;29;20095;-76
2022/06/14 01:02:30;;;;;;;13.32;3.10;;;;;;;;;;4946685;29;20895;-76
2022/06/14 01:05:01;;;;;;;15.45;3.00;;;;;;;;;;4941824;29;20171;-76
2022/06/14 01:07:31;;;;;;;16.10;2.65;;;;;;;;;;4936889;29;20066;-76
2022/06/14 01:10:02;;;;;;;11.60;2.80;;;;;;;;;;4940805;29;20102;-76
2022/06/14 01:12:31;;;;;;;11.77;3.17;;;;;;;;;;4942111;29;20663;-76
2022/06/14 01:15:05;;;;;;;12.88;3.25;;;;;;;;;;4948843;29;20150;-76
2022/06/14 01:17:34;;;;;;;18.05;2.88;;;;;;;;;;4946158;29;20087;-76
2022/06/14 01:20:01;;;;;;;21.90;3.80;;;;;;;;;;4941378;29;20161;-76
2022/06/14 01:22:30;;;;;;;12.63;2.83;;;;;;;;;;4946513;29;20152;-76
2022/06/14 01:25:00;;;;;;;13.15;3.13;;;;;;;;;;4940775;29;20213;-76
2022/06/14 01:27:28;;;;;;;12.70;2.97;;;;;;;;;;4936641;29;20130;-76
2022/06/14 01:29:59;;;;;;;18.20;3.42;;;;;;;;;;4941306;29;20145;-75
2022/06/14 01:32:28;;;;;;;21.25;4.22;;;;;;;;;;4937738;29;20130;-76
2022/06/14 01:34:58;;;;;;;16.48;3.70;;;;;;;;;;4926890;29;22027;-76
2022/06/14 01:37:25;;;;;;;14.77;3.78;;;;;;;;;;4933656;29;20055;-76
2022/06/14 01:39:54;;;;;;;20.45;3.17;;;;;;;;;;4935254;29;20059;-75
2022/06/14 01:42:28;;;;;;;16.67;3.25;;;;;;;;;;4922415;28;20047;-76
2022/06/14 01:45:01;;;;;;;11.55;3.00;;;;;;;;;;4922221;29;20051;-76
2022/06/14 01:47:28;;;;;;;17.67;2.88;;;;;;;;;;4929295;29;20058;-76
2022/06/14 01:53:23;;;;;;;11.85;3.10;;;;;;;;;;4923830;28;20170;-76
2022/06/14 01:56:09;;;;;;;17.48;3.40;;;;;;;;;;4845395;29;20065;-76
2022/06/14 01:58:45;;;;;;;14.55;2.88;;;;;;;;;;4847048;29;21208;-76
2022/06/14 02:01:24;;;;;;;17.80;4.57;;;;;;;;;;4896952;29;20773;-76
2022/06/14 02:06:45;;;;;;;12.77;2.90;;;;;;;;;;4924519;29;20246;-76
2022/06/14 02:09:16;;;;;;;20.38;3.30;;;;;;;;;;4904575;29;20194;-76
2022/06/14 02:11:43;;;;;;;17.23;3.55;;;;;;;;;;4924733;29;20059;-76
2022/06/14 02:14:20;;;;;;;18.95;3.53;;;;;;;;;;4924695;29;20055;-76
2022/06/14 02:16:51;;;;;;;17.00;3.15;;;;;;;;;;4906618;29;20166;-76
2022/06/14 02:19:28;;;;;;;17.60;2.75;;;;;;;;;;4930025;29;20055;-76
2022/06/14 02:21:57;;;;;;;10.82;3.30;;;;;;;;;;4925375;29;20061;-76
2022/06/14 02:24:31;;;;;;;16.73;3.13;;;;;;;;;;4928987;29;20150;-75
2022/06/14 02:27:10;;;;;;;20.15;2.97;;;;;;;;;;4925758;29;20105;-76
2022/06/14 02:29:44;;;;;;;19.95;3.42;;;;;;;;;;4933774;29;21743;-75
2022/06/14 02:32:17;;;;;;;9.38;3.15;;;;;;;;;;4912707;29;20051;-76
2022/06/14 02:34:47;;;;;;;8.43;2.53;;;;;;;;;;4913156;29;20071;-76
2022/06/14 02:37:33;;;;;;;24.08;3.95;;;;;;;;;;4925718;29;20476;-75
2022/06/14 02:40:12;;;;;;;11.63;3.20;;;;;;;;;;4930507;29;20048;-76
2022/06/14 02:42:44;;;;;;;15.73;3.13;;;;;;;;;;4932904;29;20082;-77
2022/06/14 02:45:21;;;;;;;17.58;3.20;;;;;;;;;;4927315;29;21601;-76
2022/06/14 02:47:54;;;;;;;6.05;2.30;;;;;;;;;;4932182;29;20086;-78
2022/06/14 02:50:21;;;;;;;15.82;3.17;;;;;;;;;;4928806;29;20051;-77
2022/06/14 02:53:00;;;;;;;19.98;3.20;;;;;;;;;;4928322;29;20114;-77
2022/06/14 02:55:28;;;;;;;11.02;2.70;;;;;;;;;;4933429;29;20902;-77
2022/06/14 02:58:04;;;;;;;17.10;3.20;;;;;;;;;;4931684;29;20084;-77
2022/06/14 03:00:37;;;;;;;13.10;3.28;;;;;;;;;;4935294;29;20154;-77
2022/06/14 03:03:08;;;;;;;18.63;3.45;;;;;;;;;;4912685;29;20075;-76
2022/06/14 03:05:48;;;;;;;18.90;3.22;;;;;;;;;;4922994;29;20039;-76
2022/06/14 03:08:26;;;;;;;19.23;3.42;;;;;;;;;;4924097;29;20077;-76
2022/06/14 03:11:12;;;;;;;16.10;3.05;;;;;;;;;;4927639;29;22006;-77
2022/06/14 03:14:02;;;;;;;15.65;3.30;;;;;;;;;;4928425;29;20054;-77
2022/06/14 03:16:35;;;;;;;12.80;2.75;;;;;;;;;;4929392;29;20142;-77
2022/06/14 03:19:14;;;;;;;17.27;2.63;;;;;;;;;;4908581;29;20055;-77
2022/06/14 03:21:47;;;;;;;18.52;3.47;;;;;;;;;;4933164;29;20169;-76
2022/06/14 03:24:35;;;;;;;15.73;2.90;;;;;;;;;;4910293;29;20075;-76
2022/06/14 03:27:05;;;;;;;13.48;2.95;;;;;;;;;;4915594;28;20055;-76
2022/06/14 03:29:42;;;;;;;13.63;3.03;;;;;;;;;;4927469;29;20051;-76
2022/06/14 03:32:14;;;;;;;18.00;3.85;;;;;;;;;;4928760;29;20083;-76
2022/06/14 03:34:44;;;;;;;16.05;3.35;;;;;;;;;;4926067;29;20093;-76
2022/06/14 03:37:13;;;;;;;16.85;3.20;;;;;;;;;;4927266;29;21670;-76
2022/06/14 03:39:47;;;;;;;23.25;3.22;;;;;;;;;;4929908;29;20039;-76
2022/06/14 03:42:15;;;;;;;13.23;3.00;;;;;;;;;;4937312;28;20133;-77
2022/06/14 03:44:42;;;;;;;15.93;3.00;;;;;;;;;;4936470;29;20075;-76
2022/06/14 03:47:17;;;;;;;13.52;3.20;;;;;;;;;;4926977;29;20058;-77
2022/06/14 03:49:56;;;;;;;17.00;3.15;;;;;;;;;;4933282;29;20118;-77
2022/06/14 03:52:27;;;;;;;13.68;2.88;;;;;;;;;;4927091;29;20055;-76
2022/06/14 03:55:01;;;;;;;11.38;2.38;;;;;;;;;;4928105;29;20298;-78
2022/06/14 03:57:43;;;;;;;13.20;3.07;;;;;;;;;;4926422;28;21686;-77
2022/06/14 04:00:14;;;;;;;14.70;2.72;;;;;;;;;;4925911;29;20055;-77
2022/06/14 04:02:53;;;;;;;15.82;2.72;;;;;;;;;;4929537;29;20082;-77
2022/06/14 04:05:33;;;;;;;12.60;2.88;;;;;;;;;;4925183;29;20953;-77
2022/06/14 04:08:21;;;;;;;9.32;2.50;;;;;;;;;;4928226;29;20190;-77
2022/06/14 04:11:07;;;;;;;19.67;3.17;;;;;;;;;;4899920;29;20162;-77
2022/06/14 04:13:40;;;;;;;16.88;3.22;;;;;;;;;;4928850;29;20142;-77
2022/06/14 04:16:29;;;;;;;10.70;2.97;;;;;;;;;;4934591;28;20078;-77
2022/06/14 04:19:08;;;;;;;18.08;2.83;;;;;;;;;;4945505;29;20181;-77
2022/06/14 04:21:43;;;;;;;14.93;2.60;;;;;;;;;;4945150;29;20153;-76
2022/06/14 04:24:11;;;;;;;12.07;2.83;;;;;;;;;;4937128;29;20123;-76
2022/06/14 04:26:41;;;;;;;17.42;2.60;;;;;;;;;;4941963;29;20134;-77
2022/06/14 04:29:19;;;;;;;13.93;2.95;;;;;;;;;;4942748;29;20113;-76
2022/06/14 04:31:58;;;;;;;19.70;2.65;;;;;;;;;;4942698;29;20154;-77
2022/06/14 04:34:55;;;;;;;20.42;3.28;;;;;;;;;;4943228;28;20155;-77
2022/06/14 04:37:31;;;;;;;20.92;3.10;;;;;;;;;;4936477;28;20143;-77
2022/06/14 04:40:01;;;;;;;15.05;3.15;;;;;;;;;;4932714;29;20126;-77
2022/06/14 04:42:58;;;;;;;12.13;3.60;;;;;;;;;;4944938;29;20142;-77
2022/06/14 04:45:55;;;;;;;10.63;2.50;;;;;;;;;;4935979;29;20505;-78
2022/06/14 04:48:30;;;;;;;9.95;2.47;;;;;;;;;;4941874;29;21329;-77
2022/06/14 04:51:01;;;;;;;16.27;2.72;;;;;;;;;;4943723;29;20074;-80
2022/06/14 04:53:39;;;;;;;10.13;2.78;;;;;;;;;;4940938;29;20142;-76
2022/06/14 04:56:14;;;;;;;15.00;2.50;;;;;;;;;;4946250;29;20134;-75
2022/06/14 04:59:02;;;;;;;18.15;3.08;;;;;;;;;;4942101;29;20170;-75
2022/06/14 05:01:33;;;;;;;18.52;2.60;;;;;;;;;;4929639;29;20142;-75
2022/06/14 05:04:10;;;;;;;24.17;2.60;;;;;;;;;;4943966;29;20054;-73
2022/06/14 05:06:40;;;;;;;12.48;2.75;;;;;;;;;;4944903;29;20623;-75
2022/06/14 05:09:15;;;;;;;9.60;3.17;;;;;;;;;;4944805;29;20456;-74
2022/06/14 05:12:09;;;;;;;11.00;2.50;;;;;;;;;;4926451;29;20150;-75
2022/06/14 05:14:51;;;;;;;18.25;3.38;;;;;;;;;;4918653;29;20086;-74
2022/06/14 05:17:23;;;;;;;14.45;2.80;;;;;;;;;;4944947;29;20137;-76
2022/06/14 05:20:13;;;;;;;17.08;4.43;;;;;;;;;;4942125;29;20433;-76
2022/06/14 05:22:45;;;;;;;4.10;1.55;;;;;;;;;;4942105;29;20130;-77
2022/06/14 05:25:13;;;;;;;15.23;3.25;;;;;;;;;;4924046;29;20164;-76
2022/06/14 05:27:40;;;;;;;12.90;2.03;;;;;;;;;;4944784;28;20541;-77
2022/06/14 05:30:11;;;;;;;12.38;2.33;;;;;;;;;;4943432;29;20074;-77
2022/06/14 05:33:03;;;;;;;13.20;2.42;;;;;;;;;;4925641;29;20051;-77
2022/06/14 05:35:30;;;;;;;11.88;2.70;;;;;;;;;;4942647;29;20139;-77
2022/06/14 05:38:10;;;;;;;11.35;2.42;;;;;;;;;;4941741;29;20051;-77
2022/06/14 05:40:45;;;;;;;10.80;2.03;;;;;;;;;;4932907;29;20770;-77
2022/06/14 05:43:12;;;;;;;13.50;2.33;;;;;;;;;;4949771;29;20146;-77
2022/06/14 05:45:41;;;;;;;12.20;2.03;;;;;;;;;;4947715;29;20082;-77
2022/06/14 05:48:11;;;;;;;17.92;2.58;;;;;;;;;;4937942;29;20071;-77
2022/06/14 05:50:46;;;;;;;10.43;2.17;;;;;;;;;;4943686;29;20159;-77
2022/06/14 05:53:20;;;;;;;15.07;2.05;;;;;;;;;;4920602;29;21065;-77
2022/06/14 05:55:49;;;;;;;13.35;2.28;;;;;;;;;;4941036;29;20142;-77
2022/06/14 05:58:30;;;;;;;9.80;1.95;;;;;;;;;;4925191;29;20191;-77
2022/06/14 06:01:09;;;;;;;8.38;2.55;;;;;;;;;;4944231;29;20126;-77
2022/06/14 06:03:36;;;;;;;8.65;1.90;;;;;;;;;;4921038;29;20137;-77
2022/06/14 06:06:13;;;;;;;5.50;2.45;;;;;;;;;;4941523;29;20150;-77
2022/06/14 06:08:49;;;;;;;7.75;2.20;;;;;;;;;;4941841;29;20134;-77
2022/06/14 06:11:28;;;;;;;13.85;2.17;;;;;;;;;;4942851;29;20102;-77
2022/06/14 06:14:17;;;;;;;10.60;2.08;;;;;;;;;;4947797;29;20805;-77
2022/06/14 06:17:04;;;;;;;14.80;1.80;;;;;;;;;;4947641;29;20482;-77
2022/06/14 06:19:45;;;;;;;15.27;2.05;;;;;;;;;;4946727;29;20567;-77
2022/06/14 06:22:15;;;;;;;9.65;2.17;;;;;;;;;;4948680;29;20573;-77
2022/06/14 06:24:45;;;;;;;20.83;1.85;;;;;;;;;;4947308;29;20142;-78
2022/06/14 06:27:17;;;;;;;16.63;2.10;;;;;;;;;;4947346;29;20051;-77
2022/06/14 06:29:52;;;;;;;16.60;3.22;;;;;;;;;;4948783;29;20138;-77
2022/06/14 06:32:20;;;;;;;13.38;2.08;;;;;;;;;;4948253;29;20130;-77
2022/06/14 06:34:48;;;;;;;13.10;2.30;;;;;;;;;;4949120;29;20130;-77
2022/06/14 06:37:22;;;;;;;14.07;1.80;;;;;;;;;;4948683;29;20210;-76
2022/06/14 06:39:52;;;;;;;12.57;2.15;;;;;;;;;;4947291;29;20086;-77
2022/06/14 06:42:21;;;;;;;8.68;2.20;;;;;;;;;;4947659;29;20082;-77
2022/06/14 06:44:48;;;;;;;10.93;2.03;;;;;;;;;;4940298;29;20046;-77
2022/06/14 06:47:16;;;;;;;12.10;1.92;;;;;;;;;;4934136;29;20158;-77
2022/06/14 06:49:58;;;;;;;17.15;1.77;;;;;;;;;;4946457;29;20138;-77
2022/06/14 06:52:30;;;;;;;9.27;2.05;;;;;;;;;;4948534;29;20055;-77
2022/06/14 06:55:00;;;;;;;13.52;2.00;;;;;;;;;;4948313;29;20779;-77
2022/06/14 06:57:29;;;;;;;11.13;2.10;;;;;;;;;;4947789;29;20857;-77
2022/06/14 06:59:58;;;;;;;9.88;1.77;;;;;;;;;;4946978;29;20110;-77
2022/06/14 07:02:28;;;;;;;11.02;1.77;;;;;;;;;;4948709;29;20139;-77
2022/06/14 07:05:03;;;;;;;17.10;2.33;;;;;;;;;;4946804;29;20043;-77
2022/06/14 07:07:36;;;;;;;7.60;1.80;;;;;;;;;;4947333;29;20079;-77
2022/06/14 07:10:07;;;;;;;13.35;2.45;;;;;;;;;;4947654;29;20057;-77
2022/06/14 07:12:55;;;;;;;13.75;1.98;;;;;;;;;;4948287;29;20082;-77
2022/06/14 07:15:32;;;;;;;5.68;1.45;;;;;;;;;;4937038;28;20047;-79
2022/06/14 07:18:06;;;;;;;15.73;2.58;;;;;;;;;;4938196;29;20091;-77
2022/06/14 07:20:41;;;;;;;7.63;1.85;;;;;;;;;;4938855;29;20624;-77
2022/06/14 07:23:08;;;;;;;13.85;2.55;;;;;;;;;;4941759;29;20588;-78
2022/06/14 07:25:44;;;;;;;14.05;2.92;;;;;;;;;;4944349;29;20197;-77
2022/06/14 07:28:11;;;;;;;15.27;2.05;;;;;;;;;;4944147;29;20129;-78
2022/06/14 07:30:44;;;;;;;14.20;2.10;;;;;;;;;;4948137;29;20133;-78
2022/06/14 07:33:12;;;;;;;12.32;2.45;;;;;;;;;;4947022;29;20059;-78
2022/06/14 07:35:52;;;;;;;11.15;2.28;;;;;;;;;;4947680;29;20088;-78
2022/06/14 07:38:24;;;;;;;7.15;1.80;;;;;;;;;;4947639;29;20089;-78
2022/06/14 07:40:51;;;;;;;13.38;3.10;;;;;;;;;;4947320;29;20476;-78
2022/06/14 07:43:41;;;;;;;11.35;1.88;;;;;;;;;;4941659;29;21238;-77
2022/06/14 07:46:11;;;;;;;14.52;2.10;;;;;;;;;;4940162;28;20146;-78
2022/06/14 07:48:41;;;;;;;11.93;1.63;;;;;;;;;;4944137;29;20167;-77
2022/06/14 07:51:29;;;;;;;6.18;1.50;;;;;;;;;;4941783;29;20082;-77
2022/06/14 07:53:59;;;;;;;9.18;1.70;;;;;;;;;;4943917;29;20083;-78
2022/06/14 07:56:54;;;;;;;5.60;1.50;;;;;;;;;;4940822;29;20059;-77
2022/06/14 07:59:28;;;;;;;10.88;2.08;;;;;;;;;;4939415;29;20175;-77
2022/06/14 08:02:02;;;;;;;9.35;1.75;;;;;;;;;;4940009;29;20061;-77
2022/06/14 08:04:33;;;;;;;5.72;1.50;;;;;;;;;;4942261;29;20051;-77
2022/06/14 08:07:11;;;;;;;14.60;1.85;;;;;;;;;;4939966;29;20047;-76
2022/06/14 08:09:44;;;;;;;6.65;1.55;;;;;;;;;;4940082;29;20051;-76
2022/06/14 08:12:19;;;;;;;4.43;1.50;;;;;;;;;;4940276;29;20147;-76
2022/06/14 08:15:01;;;;;;;11.75;1.70;;;;;;;;;;4939583;29;20084;-77
2022/06/14 08:17:41;;;;;;;10.75;1.50;;;;;;;;;;4942443;29;20091;-77
2022/06/14 08:20:09;;;;;;;7.50;1.85;;;;;;;;;;4946035;28;20134;-77
2022/06/14 08:22:39;;;;;;;8.82;1.60;;;;;;;;;;4944981;29;20114;-78
2022/06/14 08:25:09;;;;;;;10.35;1.73;;;;;;;;;;4930538;29;20170;-77
2022/06/14 08:27:38;;;;;;;15.98;2.05;;;;;;;;;;4947309;29;20086;-76
2022/06/14 08:30:05;;;;;;;11.00;1.58;;;;;;;;;;4946542;29;20075;-76
2022/06/14 08:32:33;;;;;;;6.80;1.55;;;;;;;;;;4947119;29;20055;-76
2022/06/14 08:35:08;;;;;;;6.97;1.40;;;;;;;;;;4944765;29;20055;-77
2022/06/14 08:37:42;;;;;;;5.80;1.10;;;;;;;;;;4936611;29;20138;-77
2022/06/14 08:40:30;;;;;;;39.33;2.70;;;;;;;;;;4947415;29;20533;-77
2022/06/14 08:43:10;;;;;;;5.88;1.40;;;;;;;;;;4896830;29;20875;-77
2022/06/14 08:45:40;;;;;;;7.18;1.40;;;;;;;;;;4946315;29;20104;-77
2022/06/14 08:48:13;;;;;;;11.07;2.67;;;;;;;;;;4929019;29;20075;-76
2022/06/14 08:50:41;;;;;;;11.45;1.70;;;;;;;;;;4944343;29;20086;-77
2022/06/14 08:53:11;;;;;;;8.25;1.45;;;;;;;;;;4945248;29;20456;-76
2022/06/14 08:55:41;;;;;;;12.00;1.80;;;;;;;;;;4938291;29;20050;-77
2022/06/14 08:58:11;;;;;;;7.50;1.70;;;;;;;;;;4944469;29;20480;-76
2022/06/14 09:00:41;;;;;;;7.43;1.50;;;;;;;;;;4941736;28;20050;-77
2022/06/14 09:03:29;;;;;;;4.35;1.40;;;;;;;;;;4946740;29;20079;-76
2022/06/14 09:06:13;;;;;;;13.98;2.10;;;;;;;;;;4873125;29;20066;-76
2022/06/14 09:08:58;;;;;;;13.63;2.00;;;;;;;;;;4942030;29;20162;-76
2022/06/14 09:11:44;;;;;;;6.47;2.08;;;;;;;;;;4941979;29;20127;-77
2022/06/14 09:14:11;;;;;;;;;;;;;;;;;;4943345;29;20630;-76
2022/06/14 09:16:47;;;;;;;11.20;1.90;;;;;;;;;;4946786;29;19926;-76
2022/06/14 09:19:24;;;;;;;9.43;1.83;;;;;;;;;;4942582;29;20157;-76
2022/06/14 09:22:18;;;;;;;11.77;1.95;;;;;;;;;;4943541;29;20138;-77
2022/06/14 09:25:06;;;;;;;7.90;1.73;;;;;;;;;;4948668;29;20095;-76
2022/06/14 09:27:42;;;;;;;9.32;1.50;;;;;;;;;;4947762;29;20099;-76
2022/06/14 09:30:28;;;;;;;8.48;1.75;;;;;;;;;;4945399;29;20079;-77
2022/06/14 09:33:12;;;;;;;8.82;1.67;;;;;;;;;;4950282;29;20130;-77
2022/06/14 09:35:43;;;;;;;8.18;1.45;;;;;;;;;;4943852;29;20074;-76
2022/06/14 09:38:29;;;;;;;15.02;1.70;;;;;;;;;;4942612;29;20055;-76
2022/06/14 09:40:56;;;;;;;;;;;;;;;;;;4943382;29;20856;-74
2022/06/14 09:43:23;;;;;;;6.10;1.42;;;;;;;;;;4944223;29;19996;-74
2022/06/14 09:45:53;;;;;;;7.35;1.63;;;;;;;;;;4938897;29;20137;-74
2022/06/14 09:48:27;;;;;;;7.97;1.67;;;;;;;;;;4944181;29;20082;-74
2022/06/14 09:50:58;;;;;;;9.95;1.63;;;;;;;;;;4925324;29;20126;-74
2022/06/14 09:53:40;;;;;;;11.38;2.17;;;;;;;;;;4947246;29;20515;-74
2022/06/14 09:56:18;;;;;;;6.18;1.98;;;;;;;;;;4949714;29;20166;-75
2022/06/14 09:59:04;;;;;;;5.55;1.25;;;;;;;;;;4949593;29;20094;-75
2022/06/14 10:01:37;;;;;;;11.23;1.75;;;;;;;;;;4949531;29;20739;-75
2022/06/14 10:04:07;;;;;;;9.95;1.98;;;;;;;;;;4924742;29;20058;-75
2022/06/14 10:06:39;;;;;;;13.70;1.95;;;;;;;;;;4941266;29;20188;-75
2022/06/14 10:09:18;;;;;;;7.25;2.00;;;;;;;;;;4941285;29;20095;-75
2022/06/14 10:11:45;;;;;;;13.68;1.85;;;;;;;;;;4940567;29;20100;-74
2022/06/14 10:14:38;;;;;;;6.65;1.42;;;;;;;;;;4943199;28;20086;-75
2022/06/14 10:17:23;;;;;;;8.15;1.38;;;;;;;;;;4942594;29;21502;-75
2022/06/14 10:19:56;;;;;;;4.95;1.52;;;;;;;;;;4941219;29;20079;-73
2022/06/14 10:22:35;;;;;;;8.15;1.75;;;;;;;;;;4942422;29;20079;-74
2022/06/14 10:25:14;;;;;;;4.15;1.38;;;;;;;;;;4940264;29;20146;-74
2022/06/14 10:30:32;;;;;;;4.93;1.67;;;;;;;;;;4944168;29;20051;-77
2022/06/14 10:33:00;;;;;;;11.95;1.90;;;;;;;;;;4941383;29;20058;-77
2022/06/14 10:35:46;;;;;;;13.48;1.90;;;;;;;;;;4941671;29;20054;-77
2022/06/14 10:38:26;;;;;;;6.78;1.60;;;;;;;;;;4940958;29;20051;-76
2022/06/14 10:40:53;;;;;;;6.65;1.52;;;;;;;;;;4920718;29;20055;-76
2022/06/14 10:43:23;;;;;;;9.27;1.50;;;;;;;;;;4941510;29;20124;-77
2022/06/14 10:46:08;;;;;;;6.88;1.17;;;;;;;;;;4948251;29;20059;-77
2022/06/14 10:48:39;;;;;;;9.63;0.98;;;;;;;;;;4947297;29;20049;-76
2022/06/14 10:51:06;;;;;;;3.67;0.93;;;;;;;;;;4924542;29;20879;-76
2022/06/14 10:53:44;;;;;;;2.40;1.00;;;;;;;;;;4943421;29;20125;-76
2022/06/14 10:56:32;;;;;;;7.65;1.00;;;;;;;;;;4940622;29;20102;-76
2022/06/14 10:59:18;;;;;;;3.92;1.00;;;;;;;;;;4940820;29;20097;-77
2022/06/14 11:02:15;;;;;;;7.60;0.98;;;;;;;;;;4923289;29;20559;-77
2022/06/14 11:04:58;;;;;;;11.25;1.10;;;;;;;;;;4856313;29;20064;-77
2022/06/14 11:07:52;;;;;;;6.60;1.27;;;;;;;;;;4942787;29;20055;-76
2022/06/14 11:10:19;;;;;;;2.55;0.88;;;;;;;;;;4942686;29;20074;-76
2022/06/14 11:13:05;;;;;;;9.73;1.20;;;;;;;;;;4939544;29;20775;-77
2022/06/14 11:15:38;;;;;;;9.70;1.27;;;;;;;;;;4941099;29;20165;-78
2022/06/14 11:18:05;;;;;;;6.22;1.27;;;;;;;;;;4925420;29;20146;-76
2022/06/14 11:20:32;;;;;;;3.92;1.23;;;;;;;;;;4948555;29;20055;-76
2022/06/14 11:23:23;;;;;;;5.00;1.50;;;;;;;;;;4952445;29;20827;-76
2022/06/14 11:25:50;;;;;;;9.25;1.50;;;;;;;;;;4936603;29;20079;-77
2022/06/14 11:28:33;;;;;;;3.97;1.25;;;;;;;;;;4946277;29;20485;-77
2022/06/14 11:31:18;;;;;;;3.88;1.17;;;;;;;;;;4946602;29;20579;-77
2022/06/14 11:34:12;;;;;;;6.22;1.15;;;;;;;;;;4923564;29;20461;-76
2022/06/14 11:40:05;;;;;;;5.78;1.25;;;;;;;;;;4925345;23;20054;-76
2022/06/14 11:42:41;;;;;;;6.57;0.85;;;;;;;;;;4921298;29;20576;-77
2022/06/14 11:45:18;;;;;;;3.55;1.33;;;;;;;;;;4920871;29;20138;-77
2022/06/14 11:47:49;;;;;;;3.03;0.85;;;;;;;;;;4928464;29;20583;-77
2022/06/14 11:50:35;;;;;;;7.90;1.20;;;;;;;;;;4924319;29;20174;-77
2022/06/14 11:53:06;;;;;;;3.08;1.00;;;;;;;;;;4921560;29;20111;-77
2022/06/14 11:55:44;;;;;;;5.40;1.02;;;;;;;;;;4924000;29;20158;-76
2022/06/14 11:58:11;;;;;;;7.25;0.98;;;;;;;;;;4923977;29;20057;-77
2022/06/14 12:00:38;;;;;;;4.43;0.88;;;;;;;;;;4910365;29;20400;-77
2022/06/14 12:03:40;;;;;;;3.38;0.85;;;;;;;;;;4925843;29;20047;-77
2022/06/14 12:06:31;;;;;;;2.38;0.90;;;;;;;;;;4924067;29;20130;-77
2022/06/14 12:09:01;;;;;;;5.25;0.95;;;;;;;;;;4924187;29;20062;-77
2022/06/14 12:11:52;;;;;;;4.97;1.10;;;;;;;;;;4928431;29;20098;-77
2022/06/14 12:14:19;;;;;;;;;;;;;;;;;;4929243;29;20190;-77
2022/06/14 12:16:56;;;;;;;3.13;1.00;;;;;;;;;;4928458;29;20017;-77
2022/06/14 12:19:27;;;;;;;1.05;0.38;;;;;;;;;;4910042;29;20485;-77
2022/06/14 12:22:00;;;;;;;2.40;0.77;;;;;;;;;;4928549;29;20134;-77
2022/06/14 12:27:32;;;;;;;3.85;0.90;;;;;;;;;;4907106;29;20580;-77
2022/06/14 12:30:00;;;;;;;3.13;1.00;;;;;;;;;;4907026;29;20115;-76
2022/06/14 12:32:28;;;;;;;6.15;0.70;;;;;;;;;;4920406;29;20134;-77
2022/06/14 12:35:00;;;;;;;2.10;0.68;;;;;;;;;;4920813;29;20143;-77
2022/06/14 12:37:30;;;;;;;2.03;1.10;;;;;;;;;;4924407;29;20142;-77
2022/06/14 12:40:11;;;;;;;4.68;1.00;;;;;;;;;;4922496;29;20079;-76
2022/06/14 12:42:42;;;;;;;7.53;1.55;;;;;;;;;;4923422;29;20062;-75
2022/06/14 12:45:13;;;;;;;3.78;1.10;;;;;;;;;;4920020;29;20436;-76
2022/06/14 12:47:53;;;;;;;2.85;1.00;;;;;;;;;;4926858;29;20075;-76
2022/06/14 12:50:23;;;;;;;2.00;0.80;;;;;;;;;;4930601;29;20067;-77
2022/06/14 12:52:53;;;;;;;3.10;1.00;;;;;;;;;;4931417;29;20138;-76
2022/06/14 12:55:25;;;;;;;4.70;1.15;;;;;;;;;;4932042;29;20138;-76
2022/06/14 12:58:11;;;;;;;7.18;1.10;;;;;;;;;;4930754;29;20252;-76
2022/06/14 13:00:50;;;;;;;8.45;1.52;;;;;;;;;;4912801;29;20790;-76
2022/06/14 13:03:34;;;;;;;10.05;1.80;;;;;;;;;;4925588;29;20146;-77
2022/06/14 13:06:17;;;;;;;4.20;0.80;;;;;;;;;;4925958;29;20066;-76
2022/06/14 13:08:44;;;;;;;4.68;1.02;;;;;;;;;;4928172;29;20473;-76
2022/06/14 13:11:18;;;;;;;7.18;1.35;;;;;;;;;;4922494;29;20147;-76
2022/06/14 13:13:45;;;;;;;7.75;0.95;;;;;;;;;;4927000;29;20051;-76
2022/06/14 13:16:18;;;;;;;6.47;1.00;;;;;;;;;;4925218;29;20159;-76
2022/06/14 13:18:53;;;;;;;4.22;0.90;;;;;;;;;;4907091;29;20083;-75
2022/06/14 13:21:33;;;;;;;4.10;0.75;;;;;;;;;;4927567;29;20099;-76
2022/06/14 13:24:17;;;;;;;1.52;0.73;;;;;;;;;;4928320;29;20535;-78
2022/06/14 13:26:48;;;;;;;10.38;0.95;;;;;;;;;;4913865;29;20150;-77
2022/06/14 13:29:34;;;;;;;2.75;1.00;;;;;;;;;;4930761;29;20051;-77
2022/06/14 13:32:02;;;;;;;;;;;;;;;;;;4931115;29;20204;-78
2022/06/14 13:34:56;;;;;;;2.95;0.90;;;;;;;;;;4924732;29;19922;-77
2022/06/14 13:37:26;;;;;;;3.78;1.00;;;;;;;;;;4901162;29;20055;-78
2022/06/14 13:40:12;;;;;;;3.78;0.90;;;;;;;;;;4927756;29;20580;-78
2022/06/14 13:42:56;;;;;;;3.53;1.00;;;;;;;;;;4922141;29;20191;-78
2022/06/14 13:45:23;;;;;;;2.35;0.73;;;;;;;;;;4917760;29;20087;-78
2022/06/14 13:47:58;;;;;;;5.20;0.95;;;;;;;;;;4922374;29;20139;-77
2022/06/14 13:50:46;;;;;;;3.15;0.98;;;;;;;;;;4896032;29;20537;-78
2022/06/14 13:53:16;;;;;;;3.25;0.88;;;;;;;;;;4910857;29;20107;-78
2022/06/14 13:55:48;;;;;;;3.13;0.90;;;;;;;;;;4915166;29;20115;-78
2022/06/14 13:58:41;;;;;;;5.10;1.50;;;;;;;;;;4922201;29;20087;-78
2022/06/14 14:01:36;;;;;;;5.97;1.05;;;;;;;;;;4926791;29;20378;-77
2022/06/14 14:04:23;;;;;;;4.47;1.25;;;;;;;;;;4910487;29;20086;-76
2022/06/14 14:07:00;;;;;;;5.68;1.15;;;;;;;;;;4928348;29;20509;-76
2022/06/14 14:09:34;;;;;;;8.80;1.20;;;;;;;;;;4928935;29;20164;-77
2022/06/14 14:12:21;;;;;;;4.32;1.27;;;;;;;;;;4928703;29;20639;-76
2022/06/14 14:14:54;;;;;;;8.60;1.15;;;;;;;;;;4921250;29;20051;-76
2022/06/14 14:17:34;;;;;;;3.88;0.73;;;;;;;;;;4925561;29;20131;-77
2022/06/14 14:20:19;;;;;;;4.15;1.33;;;;;;;;;;4929353;29;20137;-77
2022/06/14 14:22:46;;;;;;;;;;;;;;;;;;4912967;29;20091;-76
2022/06/14 14:25:35;;;;;;;3.33;1.10;;;;;;;;;;4928701;29;19961;-76
2022/06/14 14:28:15;;;;;;;6.43;1.05;;;;;;;;;;4927561;29;20256;-76
2022/06/14 14:31:02;;;;;;;4.18;1.45;;;;;;;;;;4929195;29;20051;-76
2022/06/14 14:33:32;;;;;;;8.68;1.33;;;;;;;;;;4928973;29;20087;-76
2022/06/14 14:36:15;;;;;;;4.75;1.27;;;;;;;;;;4928946;29;20106;-77
2022/06/14 14:38:48;;;;;;;4.05;1.17;;;;;;;;;;4928984;29;20489;-77
2022/06/14 14:41:34;;;;;;;5.53;1.45;;;;;;;;;;4927795;29;20079;-77
2022/06/14 14:44:21;;;;;;;7.90;1.52;;;;;;;;;;4927681;29;20433;-77
2022/06/14 14:46:57;;;;;;;7.70;1.00;;;;;;;;;;4926965;29;20063;-77
2022/06/14 14:49:32;;;;;;;5.90;1.13;;;;;;;;;;4928718;29;20202;-77
2022/06/14 14:52:09;;;;;;;4.10;1.15;;;;;;;;;;4911541;29;20144;-77
2022/06/14 14:54:56;;;;;;;3.70;1.15;;;;;;;;;;4911930;29;20051;-77
2022/06/14 14:57:48;;;;;;;5.43;1.33;;;;;;;;;;4928333;29;20561;-77
2022/06/14 15:05:20;;;;;;;2.78;0.98;;;;;;;;;;4923335;29;20087;-77
2022/06/14 15:06:03;;;;;;;7.97;1.30;;;;;;;;;;4922386;29;20051;-77
2022/06/14 15:09:05;;;;;;;5.22;1.23;;;;;;;;;;4928509;29;20139;-77
2022/06/14 15:11:40;;;;;;;5.18;1.10;;;;;;;;;;4868663;29;20062;-77
2022/06/14 15:14:16;;;;;;;6.40;1.10;;;;;;;;;;4918782;29;20828;-77
2022/06/14 15:16:48;;;;;;;3.53;1.20;;;;;;;;;;4915581;29;20107;-77
2022/06/14 15:22:24;;;;;;;5.35;1.02;;;;;;;;;;4916636;29;20075;-77
2022/06/14 15:24:54;;;;;;;6.60;1.30;;;;;;;;;;4916961;29;20203;-77
2022/06/14 15:27:40;;;;;;;3.35;0.82;;;;;;;;;;4927756;29;20184;-77
2022/06/14 15:30:12;;;;;;;5.78;1.10;;;;;;;;;;4922520;29;20398;-77
2022/06/14 15:32:39;;;;;;;4.82;1.40;;;;;;;;;;4928342;29;20079;-77
2022/06/14 15:35:21;;;;;;;6.10;1.50;;;;;;;;;;4928187;29;20118;-77
2022/06/14 15:38:23;;;;;;;4.47;0.95;;;;;;;;;;4922040;29;20591;-77
2022/06/14 15:41:02;;;;;;;4.28;1.20;;;;;;;;;;4897820;29;20139;-77
2022/06/14 15:43:30;;;;;;;5.20;1.23;;;;;;;;;;4908339;29;20056;-76
2022/06/14 15:45:58;;;;;;;5.07;1.30;;;;;;;;;;4925315;29;20106;-76
2022/06/14 15:48:28;;;;;;;4.72;1.23;;;;;;;;;;4926726;29;20075;-76